sensor_id;sensor_type;location;lat;lon;timestamp;temperature;humidity
10296;DHT22;5193;51.032;6.356;2023-05-29T00:00:16;14.90;99.90
10296;DHT22;5193;51.032;6.356;2023-05-29T00:02:43;14.90;99.90
10296;DHT22;5193;51.032;6.356;2023-05-29T00:05:10;14.80;99.90
10296;DHT22;5193;51.032;6.356;2023-05-29T00:07:37;14.80;99.90
10296;DHT22;5193;51.032;6.356;2023-05-29T00:10:03;14.80;99.90
10296;DHT22;5193;51.032;6.356;2023-05-29T00:12:29;14.70;99.90
10296;DHT22;5193;51.032;6.356;2023-05-29T00:14:55;14.70;99.90
10296;DHT22;5193;51.032;6.356;2023-05-29T00:17:20;14.70;99.90
10296;DHT22;5193;51.032;6.356;2023-05-29T00:19:46;14.60;99.90
10296;DHT22;5193;51.032;6.356;2023-05-29T00:22:12;14.60;99.90
10296;DHT22;5193;51.032;6.356;2023-05-29T00:24:38;14.50;99.90
10296;DHT22;5193;51.032;6.356;2023-05-29T00:27:04;14.50;99.90
10296;DHT22;5193;51.032;6.356;2023-05-29T00:29:29;14.40;99.90
10296;DHT22;5193;51.032;6.356;2023-05-29T00:31:56;14.40;99.90
10296;DHT22;5193;51.032;6.356;2023-05-29T00:34:22;14.40;99.90
10296;DHT22;5193;51.032;6.356;2023-05-29T00:36:49;14.40;99.90
10296;DHT22;5193;51.032;6.356;2023-05-29T00:39:14;14.30;99.90
10296;DHT22;5193;51.032;6.356;2023-05-29T00:41:40;14.30;99.90
10296;DHT22;5193;51.032;6.356;2023-05-29T00:44:06;14.20;99.90
10296;DHT22;5193;51.032;6.356;2023-05-29T00:46:33;14.20;99.90
10296;DHT22;5193;51.032;6.356;2023-05-29T00:48:59;14.10;99.90
10296;DHT22;5193;51.032;6.356;2023-05-29T00:51:26;14.10;99.90
10296;DHT22;5193;51.032;6.356;2023-05-29T00:53:53;14.00;99.90
10296;DHT22;5193;51.032;6.356;2023-05-29T00:56:19;14.00;99.90
10296;DHT22;5193;51.032;6.356;2023-05-29T00:58:49;14.00;99.90
10296;DHT22;5193;51.032;6.356;2023-05-29T01:01:18;13.90;99.90
10296;DHT22;5193;51.032;6.356;2023-05-29T01:03:44;13.90;99.90
10296;DHT22;5193;51.032;6.356;2023-05-29T01:06:10;13.80;99.90
10296;DHT22;5193;51.032;6.356;2023-05-29T01:08:36;13.80;99.90
10296;DHT22;5193;51.032;6.356;2023-05-29T01:11:24;13.80;99.90
10296;DHT22;5193;51.032;6.356;2023-05-29T01:13:51;13.70;99.90
10296;DHT22;5193;51.032;6.356;2023-05-29T01:16:29;13.70;99.90
10296;DHT22;5193;51.032;6.356;2023-05-29T01:19:03;13.60;99.90
10296;DHT22;5193;51.032;6.356;2023-05-29T01:21:56;13.50;99.90
10296;DHT22;5193;51.032;6.356;2023-05-29T01:27:05;13.40;99.90
10296;DHT22;5193;51.032;6.356;2023-05-29T01:29:34;13.30;99.90
10296;DHT22;5193;51.032;6.356;2023-05-29T01:32:00;13.30;99.90
10296;DHT22;5193;51.032;6.356;2023-05-29T01:34:27;13.20;99.90
10296;DHT22;5193;51.032;6.356;2023-05-29T01:36:53;13.10;99.90
10296;DHT22;5193;51.032;6.356;2023-05-29T01:39:19;13.00;99.90
10296;DHT22;5193;51.032;6.356;2023-05-29T01:41:47;13.00;99.90
10296;DHT22;5193;51.032;6.356;2023-05-29T01:44:13;12.90;99.90
10296;DHT22;5193;51.032;6.356;2023-05-29T01:46:40;12.90;99.90
10296;DHT22;5193;51.032;6.356;2023-05-29T01:49:07;12.80;99.90
10296;DHT22;5193;51.032;6.356;2023-05-29T01:51:33;12.70;99.90
10296;DHT22;5193;51.032;6.356;2023-05-29T01:53:59;12.70;99.90
10296;DHT22;5193;51.032;6.356;2023-05-29T01:56:26;12.60;99.90
10296;DHT22;5193;51.032;6.356;2023-05-29T01:58:54;12.60;99.90
10296;DHT22;5193;51.032;6.356;2023-05-29T02:01:22;12.50;99.90
10296;DHT22;5193;51.032;6.356;2023-05-29T02:03:47;12.50;99.90
10296;DHT22;5193;51.032;6.356;2023-05-29T02:06:13;12.50;99.90
10296;DHT22;5193;51.032;6.356;2023-05-29T02:08:39;12.40;99.90
10296;DHT22;5193;51.032;6.356;2023-05-29T02:11:04;12.40;99.90
10296;DHT22;5193;51.032;6.356;2023-05-29T02:13:31;12.40;99.90
10296;DHT22;5193;51.032;6.356;2023-05-29T02:15:56;12.40;99.90
10296;DHT22;5193;51.032;6.356;2023-05-29T02:18:22;12.30;99.90
10296;DHT22;5193;51.032;6.356;2023-05-29T02:20:47;12.30;99.90
10296;DHT22;5193;51.032;6.356;2023-05-29T02:23:13;12.30;99.90
10296;DHT22;5193;51.032;6.356;2023-05-29T02:25:41;12.20;99.90
10296;DHT22;5193;51.032;6.356;2023-05-29T02:28:06;12.10;99.90
10296;DHT22;5193;51.032;6.356;2023-05-29T02:30:32;12.20;99.90
10296;DHT22;5193;51.032;6.356;2023-05-29T02:32:58;12.10;99.90
10296;DHT22;5193;51.032;6.356;2023-05-29T02:35:23;12.10;99.90
10296;DHT22;5193;51.032;6.356;2023-05-29T02:37:50;12.00;99.90
10296;DHT22;5193;51.032;6.356;2023-05-29T02:40:16;12.00;99.90
10296;DHT22;5193;51.032;6.356;2023-05-29T02:42:42;12.00;99.90
10296;DHT22;5193;51.032;6.356;2023-05-29T02:45:08;11.90;99.90
10296;DHT22;5193;51.032;6.356;2023-05-29T02:47:34;11.90;99.90
10296;DHT22;5193;51.032;6.356;2023-05-29T02:50:00;11.80;99.90
10296;DHT22;5193;51.032;6.356;2023-05-29T02:52:26;11.80;99.90
10296;DHT22;5193;51.032;6.356;2023-05-29T02:54:52;11.80;99.90
10296;DHT22;5193;51.032;6.356;2023-05-29T02:57:19;11.70;99.90
10296;DHT22;5193;51.032;6.356;2023-05-29T02:59:45;11.70;99.90
10296;DHT22;5193;51.032;6.356;2023-05-29T03:02:11;11.70;99.90
10296;DHT22;5193;51.032;6.356;2023-05-29T03:04:37;11.60;99.90
10296;DHT22;5193;51.032;6.356;2023-05-29T03:07:03;11.60;99.90
10296;DHT22;5193;51.032;6.356;2023-05-29T03:09:28;11.50;99.90
10296;DHT22;5193;51.032;6.356;2023-05-29T03:11:54;11.50;99.90
10296;DHT22;5193;51.032;6.356;2023-05-29T03:14:20;11.50;99.90
10296;DHT22;5193;51.032;6.356;2023-05-29T03:16:47;11.40;99.90
10296;DHT22;5193;51.032;6.356;2023-05-29T03:19:13;11.40;99.90
10296;DHT22;5193;51.032;6.356;2023-05-29T03:21:38;11.40;99.90
10296;DHT22;5193;51.032;6.356;2023-05-29T03:24:04;11.30;99.90
10296;DHT22;5193;51.032;6.356;2023-05-29T03:26:30;11.30;99.90
10296;DHT22;5193;51.032;6.356;2023-05-29T03:28:55;11.30;99.90
10296;DHT22;5193;51.032;6.356;2023-05-29T03:31:21;11.20;99.90
10296;DHT22;5193;51.032;6.356;2023-05-29T03:33:48;11.20;99.90
10296;DHT22;5193;51.032;6.356;2023-05-29T03:36:13;11.20;99.90
10296;DHT22;5193;51.032;6.356;2023-05-29T03:38:39;11.20;99.90
10296;DHT22;5193;51.032;6.356;2023-05-29T03:41:05;11.10;99.90
10296;DHT22;5193;51.032;6.356;2023-05-29T03:43:30;11.20;99.90
10296;DHT22;5193;51.032;6.356;2023-05-29T03:45:56;11.10;99.90
10296;DHT22;5193;51.032;6.356;2023-05-29T03:48:21;11.10;99.90
10296;DHT22;5193;51.032;6.356;2023-05-29T03:50:47;11.10;99.90
10296;DHT22;5193;51.032;6.356;2023-05-29T03:53:13;11.10;99.90
10296;DHT22;5193;51.032;6.356;2023-05-29T03:55:38;11.10;99.90
10296;DHT22;5193;51.032;6.356;2023-05-29T03:58:04;11.10;99.90
10296;DHT22;5193;51.032;6.356;2023-05-29T04:00:30;11.10;99.90
10296;DHT22;5193;51.032;6.356;2023-05-29T04:02:56;11.10;99.90
10296;DHT22;5193;51.032;6.356;2023-05-29T04:05:22;11.10;99.90
10296;DHT22;5193;51.032;6.356;2023-05-29T04:07:47;11.10;99.90
10296;DHT22;5193;51.032;6.356;2023-05-29T04:10:13;11.10;99.90
10296;DHT22;5193;51.032;6.356;2023-05-29T04:12:38;11.10;99.90
10296;DHT22;5193;51.032;6.356;2023-05-29T04:15:05;11.10;99.90
10296;DHT22;5193;51.032;6.356;2023-05-29T04:17:31;11.00;99.90
10296;DHT22;5193;51.032;6.356;2023-05-29T04:19:56;11.10;99.90
10296;DHT22;5193;51.032;6.356;2023-05-29T04:22:22;11.10;99.90
10296;DHT22;5193;51.032;6.356;2023-05-29T04:24:48;11.10;99.90
10296;DHT22;5193;51.032;6.356;2023-05-29T04:27:13;11.10;99.90
10296;DHT22;5193;51.032;6.356;2023-05-29T04:29:41;11.10;99.90
10296;DHT22;5193;51.032;6.356;2023-05-29T04:32:08;11.10;99.90
10296;DHT22;5193;51.032;6.356;2023-05-29T04:34:35;11.10;99.90
10296;DHT22;5193;51.032;6.356;2023-05-29T04:37:02;11.20;99.90
10296;DHT22;5193;51.032;6.356;2023-05-29T04:39:28;11.10;99.90
10296;DHT22;5193;51.032;6.356;2023-05-29T04:41:54;11.20;99.90
10296;DHT22;5193;51.032;6.356;2023-05-29T04:44:24;11.20;99.90
10296;DHT22;5193;51.032;6.356;2023-05-29T04:46:52;11.20;99.90
10296;DHT22;5193;51.032;6.356;2023-05-29T04:49:18;11.30;99.90
10296;DHT22;5193;51.032;6.356;2023-05-29T04:51:43;11.20;99.90
10296;DHT22;5193;51.032;6.356;2023-05-29T04:54:11;11.30;99.90
10296;DHT22;5193;51.032;6.356;2023-05-29T04:56:37;11.30;99.90
10296;DHT22;5193;51.032;6.356;2023-05-29T04:59:05;11.30;99.90
10296;DHT22;5193;51.032;6.356;2023-05-29T05:01:32;11.40;99.90
10296;DHT22;5193;51.032;6.356;2023-05-29T05:03:59;11.40;99.90
10296;DHT22;5193;51.032;6.356;2023-05-29T05:06:25;11.40;99.90
10296;DHT22;5193;51.032;6.356;2023-05-29T05:08:51;11.40;99.90
10296;DHT22;5193;51.032;6.356;2023-05-29T05:11:21;11.50;99.90
10296;DHT22;5193;51.032;6.356;2023-05-29T05:13:47;11.50;99.90
10296;DHT22;5193;51.032;6.356;2023-05-29T05:16:12;11.50;99.90
10296;DHT22;5193;51.032;6.356;2023-05-29T05:18:38;11.50;99.90
10296;DHT22;5193;51.032;6.356;2023-05-29T05:21:04;11.60;99.90
10296;DHT22;5193;51.032;6.356;2023-05-29T05:23:30;11.60;99.90
10296;DHT22;5193;51.032;6.356;2023-05-29T05:25:55;11.60;99.90
10296;DHT22;5193;51.032;6.356;2023-05-29T05:28:21;11.60;99.90
10296;DHT22;5193;51.032;6.356;2023-05-29T05:30:47;11.60;99.90
10296;DHT22;5193;51.032;6.356;2023-05-29T05:33:12;11.60;99.90
10296;DHT22;5193;51.032;6.356;2023-05-29T05:35:38;11.70;99.90
10296;DHT22;5193;51.032;6.356;2023-05-29T05:38:04;11.80;99.90
10296;DHT22;5193;51.032;6.356;2023-05-29T05:40:30;11.80;99.90
10296;DHT22;5193;51.032;6.356;2023-05-29T05:42:55;11.80;99.90
10296;DHT22;5193;51.032;6.356;2023-05-29T05:45:21;11.80;99.90
10296;DHT22;5193;51.032;6.356;2023-05-29T05:47:47;11.90;99.90
10296;DHT22;5193;51.032;6.356;2023-05-29T05:50:13;11.90;99.90
10296;DHT22;5193;51.032;6.356;2023-05-29T05:52:39;12.00;99.90
10296;DHT22;5193;51.032;6.356;2023-05-29T05:55:04;12.00;99.90
10296;DHT22;5193;51.032;6.356;2023-05-29T05:57:31;12.00;99.90
10296;DHT22;5193;51.032;6.356;2023-05-29T06:00:05;12.10;99.90
10296;DHT22;5193;51.032;6.356;2023-05-29T06:02:38;12.10;99.90
10296;DHT22;5193;51.032;6.356;2023-05-29T06:05:08;12.20;99.90
10296;DHT22;5193;51.032;6.356;2023-05-29T06:07:35;12.20;99.90
10296;DHT22;5193;51.032;6.356;2023-05-29T06:10:01;12.30;99.90
10296;DHT22;5193;51.032;6.356;2023-05-29T06:12:26;12.50;99.90
10296;DHT22;5193;51.032;6.356;2023-05-29T06:14:53;12.60;99.90
10296;DHT22;5193;51.032;6.356;2023-05-29T06:17:18;12.60;99.90
10296;DHT22;5193;51.032;6.356;2023-05-29T06:19:44;12.60;99.90
10296;DHT22;5193;51.032;6.356;2023-05-29T06:22:09;12.70;99.90
10296;DHT22;5193;51.032;6.356;2023-05-29T06:24:35;12.80;99.90
10296;DHT22;5193;51.032;6.356;2023-05-29T06:27:00;12.90;99.90
10296;DHT22;5193;51.032;6.356;2023-05-29T06:29:27;13.10;99.90
10296;DHT22;5193;51.032;6.356;2023-05-29T06:31:52;13.20;99.90
10296;DHT22;5193;51.032;6.356;2023-05-29T06:34:18;13.20;99.90
10296;DHT22;5193;51.032;6.356;2023-05-29T06:36:43;13.30;99.90
10296;DHT22;5193;51.032;6.356;2023-05-29T06:39:09;13.30;99.90
10296;DHT22;5193;51.032;6.356;2023-05-29T06:41:36;13.40;99.90
10296;DHT22;5193;51.032;6.356;2023-05-29T06:44:01;13.50;99.90
10296;DHT22;5193;51.032;6.356;2023-05-29T06:46:27;13.50;99.90
10296;DHT22;5193;51.032;6.356;2023-05-29T06:48:52;13.50;99.90
10296;DHT22;5193;51.032;6.356;2023-05-29T06:51:18;13.60;99.90
10296;DHT22;5193;51.032;6.356;2023-05-29T06:53:43;13.60;99.90
10296;DHT22;5193;51.032;6.356;2023-05-29T06:56:09;13.60;99.90
10296;DHT22;5193;51.032;6.356;2023-05-29T06:58:35;13.70;99.90
10296;DHT22;5193;51.032;6.356;2023-05-29T07:01:01;13.80;99.90
10296;DHT22;5193;51.032;6.356;2023-05-29T07:03:27;13.90;99.90
10296;DHT22;5193;51.032;6.356;2023-05-29T07:05:52;14.00;99.90
10296;DHT22;5193;51.032;6.356;2023-05-29T07:08:18;14.10;99.90
10296;DHT22;5193;51.032;6.356;2023-05-29T07:10:44;14.20;99.90
10296;DHT22;5193;51.032;6.356;2023-05-29T07:13:10;14.20;99.90
10296;DHT22;5193;51.032;6.356;2023-05-29T07:15:37;14.30;99.90
10296;DHT22;5193;51.032;6.356;2023-05-29T07:18:03;14.50;99.90
10296;DHT22;5193;51.032;6.356;2023-05-29T07:20:28;14.60;99.90
10296;DHT22;5193;51.032;6.356;2023-05-29T07:22:54;14.70;99.90
10296;DHT22;5193;51.032;6.356;2023-05-29T07:25:19;14.70;99.90
10296;DHT22;5193;51.032;6.356;2023-05-29T07:27:45;14.60;99.90
10296;DHT22;5193;51.032;6.356;2023-05-29T07:30:11;14.80;99.90
10296;DHT22;5193;51.032;6.356;2023-05-29T07:32:37;14.90;99.90
10296;DHT22;5193;51.032;6.356;2023-05-29T07:35:03;15.00;99.90
10296;DHT22;5193;51.032;6.356;2023-05-29T07:37:28;15.00;99.90
10296;DHT22;5193;51.032;6.356;2023-05-29T07:39:55;15.10;99.90
10296;DHT22;5193;51.032;6.356;2023-05-29T07:42:21;15.10;99.90
10296;DHT22;5193;51.032;6.356;2023-05-29T07:44:46;15.10;99.90
10296;DHT22;5193;51.032;6.356;2023-05-29T07:47:13;15.20;99.90
10296;DHT22;5193;51.032;6.356;2023-05-29T07:49:39;15.20;99.90
10296;DHT22;5193;51.032;6.356;2023-05-29T07:52:05;15.20;99.90
10296;DHT22;5193;51.032;6.356;2023-05-29T07:54:31;15.20;99.90
10296;DHT22;5193;51.032;6.356;2023-05-29T07:56:58;15.30;99.90
10296;DHT22;5193;51.032;6.356;2023-05-29T07:59:25;15.30;99.90
10296;DHT22;5193;51.032;6.356;2023-05-29T08:01:50;15.40;99.90
10296;DHT22;5193;51.032;6.356;2023-05-29T08:04:16;15.50;99.90
10296;DHT22;5193;51.032;6.356;2023-05-29T08:06:41;15.50;99.90
10296;DHT22;5193;51.032;6.356;2023-05-29T08:09:09;15.60;99.90
10296;DHT22;5193;51.032;6.356;2023-05-29T08:11:36;15.80;99.90
10296;DHT22;5193;51.032;6.356;2023-05-29T08:14:02;15.80;99.90
10296;DHT22;5193;51.032;6.356;2023-05-29T08:16:27;15.80;99.90
10296;DHT22;5193;51.032;6.356;2023-05-29T08:18:53;16.00;99.90
10296;DHT22;5193;51.032;6.356;2023-05-29T08:21:18;16.20;99.90
10296;DHT22;5193;51.032;6.356;2023-05-29T08:23:45;16.20;99.90
10296;DHT22;5193;51.032;6.356;2023-05-29T08:26:10;16.40;99.90
10296;DHT22;5193;51.032;6.356;2023-05-29T08:28:36;16.50;99.90
10296;DHT22;5193;51.032;6.356;2023-05-29T08:31:02;16.60;99.90
10296;DHT22;5193;51.032;6.356;2023-05-29T08:33:27;16.70;99.90
10296;DHT22;5193;51.032;6.356;2023-05-29T08:35:53;16.70;99.90
10296;DHT22;5193;51.032;6.356;2023-05-29T08:38:18;16.60;99.90
10296;DHT22;5193;51.032;6.356;2023-05-29T08:40:47;16.60;99.90
10296;DHT22;5193;51.032;6.356;2023-05-29T08:43:16;16.60;99.90
10296;DHT22;5193;51.032;6.356;2023-05-29T08:45:44;16.60;99.90
10296;DHT22;5193;51.032;6.356;2023-05-29T08:48:11;16.70;99.90
10296;DHT22;5193;51.032;6.356;2023-05-29T08:50:43;16.70;99.90
10296;DHT22;5193;51.032;6.356;2023-05-29T08:53:15;16.90;99.90
10296;DHT22;5193;51.032;6.356;2023-05-29T08:55:41;16.90;99.90
10296;DHT22;5193;51.032;6.356;2023-05-29T08:58:07;16.90;99.90
10296;DHT22;5193;51.032;6.356;2023-05-29T09:00:33;17.00;99.90
10296;DHT22;5193;51.032;6.356;2023-05-29T09:02:59;17.00;99.90
10296;DHT22;5193;51.032;6.356;2023-05-29T09:05:25;17.00;99.90
10296;DHT22;5193;51.032;6.356;2023-05-29T09:07:55;17.00;99.90
10296;DHT22;5193;51.032;6.356;2023-05-29T09:10:21;17.10;99.90
10296;DHT22;5193;51.032;6.356;2023-05-29T09:12:47;17.10;99.90
10296;DHT22;5193;51.032;6.356;2023-05-29T09:15:22;17.20;99.90
10296;DHT22;5193;51.032;6.356;2023-05-29T09:20:18;17.30;99.90
10296;DHT22;5193;51.032;6.356;2023-05-29T09:23:01;17.50;99.90
10296;DHT22;5193;51.032;6.356;2023-05-29T09:25:29;17.70;99.90
10296;DHT22;5193;51.032;6.356;2023-05-29T09:28:04;17.60;99.90
10296;DHT22;5193;51.032;6.356;2023-05-29T09:33:01;17.60;99.90
10296;DHT22;5193;51.032;6.356;2023-05-29T09:38:07;17.70;99.90
10296;DHT22;5193;51.032;6.356;2023-05-29T09:40:36;17.70;99.90
10296;DHT22;5193;51.032;6.356;2023-05-29T09:43:09;17.70;99.90
10296;DHT22;5193;51.032;6.356;2023-05-29T09:45:43;17.70;99.90
10296;DHT22;5193;51.032;6.356;2023-05-29T09:48:18;17.80;99.90
10296;DHT22;5193;51.032;6.356;2023-05-29T09:50:44;17.80;99.90
10296;DHT22;5193;51.032;6.356;2023-05-29T09:53:31;17.90;99.90
10296;DHT22;5193;51.032;6.356;2023-05-29T09:55:57;18.00;99.90
10296;DHT22;5193;51.032;6.356;2023-05-29T09:58:24;18.10;99.90
10296;DHT22;5193;51.032;6.356;2023-05-29T10:00:51;18.20;99.90
10296;DHT22;5193;51.032;6.356;2023-05-29T10:03:17;18.20;99.90
10296;DHT22;5193;51.032;6.356;2023-05-29T10:05:49;18.20;99.90
10296;DHT22;5193;51.032;6.356;2023-05-29T10:08:17;18.10;99.90
10296;DHT22;5193;51.032;6.356;2023-05-29T10:10:47;18.10;99.90
10296;DHT22;5193;51.032;6.356;2023-05-29T10:13:14;18.10;99.90
10296;DHT22;5193;51.032;6.356;2023-05-29T10:15:45;18.20;99.90
10296;DHT22;5193;51.032;6.356;2023-05-29T10:18:59;18.30;99.90
10296;DHT22;5193;51.032;6.356;2023-05-29T10:21:27;18.40;99.90
10296;DHT22;5193;51.032;6.356;2023-05-29T10:23:54;18.50;99.90
10296;DHT22;5193;51.032;6.356;2023-05-29T10:26:24;18.70;99.90
10296;DHT22;5193;51.032;6.356;2023-05-29T10:29:17;18.60;99.90
10296;DHT22;5193;51.032;6.356;2023-05-29T10:32:05;18.50;99.90
10296;DHT22;5193;51.032;6.356;2023-05-29T10:37:34;18.70;99.90
10296;DHT22;5193;51.032;6.356;2023-05-29T10:40:08;18.60;99.90
10296;DHT22;5193;51.032;6.356;2023-05-29T10:42:52;18.70;99.90
10296;DHT22;5193;51.032;6.356;2023-05-29T10:50:46;18.80;99.90
10296;DHT22;5193;51.032;6.356;2023-05-29T10:53:23;18.90;99.90
10296;DHT22;5193;51.032;6.356;2023-05-29T10:55:50;18.90;99.90
10296;DHT22;5193;51.032;6.356;2023-05-29T10:58:24;18.90;99.90
10296;DHT22;5193;51.032;6.356;2023-05-29T11:00:51;19.00;99.90
10296;DHT22;5193;51.032;6.356;2023-05-29T11:03:31;19.10;99.90
10296;DHT22;5193;51.032;6.356;2023-05-29T11:06:03;19.20;99.90
10296;DHT22;5193;51.032;6.356;2023-05-29T11:08:45;19.20;99.90
10296;DHT22;5193;51.032;6.356;2023-05-29T11:11:15;19.30;99.90
10296;DHT22;5193;51.032;6.356;2023-05-29T11:13:41;19.40;99.90
10296;DHT22;5193;51.032;6.356;2023-05-29T11:18:53;19.50;99.90
10296;DHT22;5193;51.032;6.356;2023-05-29T11:24:04;19.40;99.90
10296;DHT22;5193;51.032;6.356;2023-05-29T11:26:33;19.50;99.90
10296;DHT22;5193;51.032;6.356;2023-05-29T11:29:00;19.70;99.90
10296;DHT22;5193;51.032;6.356;2023-05-29T11:31:28;19.70;99.90
10296;DHT22;5193;51.032;6.356;2023-05-29T11:33:59;19.80;99.90
10296;DHT22;5193;51.032;6.356;2023-05-29T11:36:25;19.90;99.90
10296;DHT22;5193;51.032;6.356;2023-05-29T11:38:51;19.90;99.90
10296;DHT22;5193;51.032;6.356;2023-05-29T11:41:18;19.90;99.90
10296;DHT22;5193;51.032;6.356;2023-05-29T11:43:43;20.00;99.90
10296;DHT22;5193;51.032;6.356;2023-05-29T11:46:16;20.00;99.90
10296;DHT22;5193;51.032;6.356;2023-05-29T11:48:47;19.90;99.90
10296;DHT22;5193;51.032;6.356;2023-05-29T11:51:12;20.00;99.90
10296;DHT22;5193;51.032;6.356;2023-05-29T11:53:43;20.20;99.90
10296;DHT22;5193;51.032;6.356;2023-05-29T11:56:11;20.30;99.90
10296;DHT22;5193;51.032;6.356;2023-05-29T11:58:38;20.40;99.90
10296;DHT22;5193;51.032;6.356;2023-05-29T12:01:04;20.20;99.90
10296;DHT22;5193;51.032;6.356;2023-05-29T12:03:37;20.20;99.90
10296;DHT22;5193;51.032;6.356;2023-05-29T12:06:03;20.30;99.90
10296;DHT22;5193;51.032;6.356;2023-05-29T12:08:29;20.40;99.90
10296;DHT22;5193;51.032;6.356;2023-05-29T12:10:54;20.50;99.90
10296;DHT22;5193;51.032;6.356;2023-05-29T12:13:21;20.60;99.90
10296;DHT22;5193;51.032;6.356;2023-05-29T12:15:48;20.70;99.90
10296;DHT22;5193;51.032;6.356;2023-05-29T12:18:14;20.80;99.90
10296;DHT22;5193;51.032;6.356;2023-05-29T12:20:40;20.80;99.90
10296;DHT22;5193;51.032;6.356;2023-05-29T12:23:06;20.90;99.90
10296;DHT22;5193;51.032;6.356;2023-05-29T12:25:34;20.80;99.90
10296;DHT22;5193;51.032;6.356;2023-05-29T12:28:02;20.70;99.90
10296;DHT22;5193;51.032;6.356;2023-05-29T12:30:28;20.80;99.90
10296;DHT22;5193;51.032;6.356;2023-05-29T12:32:54;20.80;99.90
10296;DHT22;5193;51.032;6.356;2023-05-29T12:35:27;20.90;99.90
10296;DHT22;5193;51.032;6.356;2023-05-29T12:40:28;21.00;99.90
10296;DHT22;5193;51.032;6.356;2023-05-29T12:42:58;21.00;99.90
10296;DHT22;5193;51.032;6.356;2023-05-29T12:45:26;21.10;99.90
10296;DHT22;5193;51.032;6.356;2023-05-29T12:47:54;21.00;99.90
10296;DHT22;5193;51.032;6.356;2023-05-29T12:50:24;20.90;99.90
10296;DHT22;5193;51.032;6.356;2023-05-29T12:53:07;20.80;99.90
10296;DHT22;5193;51.032;6.356;2023-05-29T12:55:38;20.90;99.90
10296;DHT22;5193;51.032;6.356;2023-05-29T12:58:08;20.90;99.90
10296;DHT22;5193;51.032;6.356;2023-05-29T13:00:35;20.90;99.90
10296;DHT22;5193;51.032;6.356;2023-05-29T13:03:02;20.80;99.90
10296;DHT22;5193;51.032;6.356;2023-05-29T13:05:28;20.80;99.90
10296;DHT22;5193;51.032;6.356;2023-05-29T13:07:53;20.80;99.90
10296;DHT22;5193;51.032;6.356;2023-05-29T13:10:20;20.90;99.90
10296;DHT22;5193;51.032;6.356;2023-05-29T13:12:47;21.00;99.90
10296;DHT22;5193;51.032;6.356;2023-05-29T13:15:14;21.00;99.90
10296;DHT22;5193;51.032;6.356;2023-05-29T13:17:40;21.00;99.90
10296;DHT22;5193;51.032;6.356;2023-05-29T13:20:11;20.90;99.90
10296;DHT22;5193;51.032;6.356;2023-05-29T13:22:42;21.00;99.90
10296;DHT22;5193;51.032;6.356;2023-05-29T13:25:09;21.00;99.90
10296;DHT22;5193;51.032;6.356;2023-05-29T13:27:37;20.90;99.90
10296;DHT22;5193;51.032;6.356;2023-05-29T13:30:04;21.10;99.90
10296;DHT22;5193;51.032;6.356;2023-05-29T13:32:30;21.10;99.90
10296;DHT22;5193;51.032;6.356;2023-05-29T13:34:56;21.10;99.90
10296;DHT22;5193;51.032;6.356;2023-05-29T13:37:22;21.00;99.90
10296;DHT22;5193;51.032;6.356;2023-05-29T13:39:48;20.80;99.90
10296;DHT22;5193;51.032;6.356;2023-05-29T13:42:14;20.80;99.90
10296;DHT22;5193;51.032;6.356;2023-05-29T13:44:40;20.80;99.90
10296;DHT22;5193;51.032;6.356;2023-05-29T13:47:06;20.80;99.90
10296;DHT22;5193;51.032;6.356;2023-05-29T13:49:34;20.70;99.90
10296;DHT22;5193;51.032;6.356;2023-05-29T13:51:59;20.70;99.90
10296;DHT22;5193;51.032;6.356;2023-05-29T13:54:25;20.70;99.90
10296;DHT22;5193;51.032;6.356;2023-05-29T13:56:52;20.80;99.90
10296;DHT22;5193;51.032;6.356;2023-05-29T13:59:18;20.80;99.90
10296;DHT22;5193;51.032;6.356;2023-05-29T14:01:44;20.90;99.90
10296;DHT22;5193;51.032;6.356;2023-05-29T14:04:09;20.80;99.90
10296;DHT22;5193;51.032;6.356;2023-05-29T14:06:35;20.80;99.90
10296;DHT22;5193;51.032;6.356;2023-05-29T14:09:02;20.90;99.90
10296;DHT22;5193;51.032;6.356;2023-05-29T14:11:28;20.90;99.90
10296;DHT22;5193;51.032;6.356;2023-05-29T14:13:54;20.80;99.90
10296;DHT22;5193;51.032;6.356;2023-05-29T14:16:20;20.80;99.90
10296;DHT22;5193;51.032;6.356;2023-05-29T14:18:45;20.80;99.90
10296;DHT22;5193;51.032;6.356;2023-05-29T14:21:13;20.70;99.90
10296;DHT22;5193;51.032;6.356;2023-05-29T14:23:39;20.70;99.90
10296;DHT22;5193;51.032;6.356;2023-05-29T14:26:05;20.70;99.90
10296;DHT22;5193;51.032;6.356;2023-05-29T14:28:31;20.80;99.90
10296;DHT22;5193;51.032;6.356;2023-05-29T14:30:56;20.80;99.90
10296;DHT22;5193;51.032;6.356;2023-05-29T14:33:22;20.70;99.90
10296;DHT22;5193;51.032;6.356;2023-05-29T14:35:47;20.60;99.90
10296;DHT22;5193;51.032;6.356;2023-05-29T14:38:13;20.60;99.90
10296;DHT22;5193;51.032;6.356;2023-05-29T14:40:38;20.50;99.90
10296;DHT22;5193;51.032;6.356;2023-05-29T14:43:04;20.50;99.90
10296;DHT22;5193;51.032;6.356;2023-05-29T14:45:29;20.60;99.90
10296;DHT22;5193;51.032;6.356;2023-05-29T14:47:55;20.60;99.90
10296;DHT22;5193;51.032;6.356;2023-05-29T14:50:21;20.70;99.90
10296;DHT22;5193;51.032;6.356;2023-05-29T14:52:46;20.70;99.90
10296;DHT22;5193;51.032;6.356;2023-05-29T14:55:13;20.70;99.90
10296;DHT22;5193;51.032;6.356;2023-05-29T14:57:40;20.70;99.90
10296;DHT22;5193;51.032;6.356;2023-05-29T15:00:07;20.80;99.90
10296;DHT22;5193;51.032;6.356;2023-05-29T15:02:32;20.70;99.90
10296;DHT22;5193;51.032;6.356;2023-05-29T15:04:59;20.70;99.90
10296;DHT22;5193;51.032;6.356;2023-05-29T15:07:25;20.60;99.90
10296;DHT22;5193;51.032;6.356;2023-05-29T15:09:51;20.50;99.90
10296;DHT22;5193;51.032;6.356;2023-05-29T15:12:17;20.50;99.90
10296;DHT22;5193;51.032;6.356;2023-05-29T15:14:42;20.50;99.90
10296;DHT22;5193;51.032;6.356;2023-05-29T15:17:08;20.50;99.90
10296;DHT22;5193;51.032;6.356;2023-05-29T15:19:34;20.50;99.90
10296;DHT22;5193;51.032;6.356;2023-05-29T15:21:59;20.40;99.90
10296;DHT22;5193;51.032;6.356;2023-05-29T15:24:25;20.30;99.90
10296;DHT22;5193;51.032;6.356;2023-05-29T15:26:51;20.20;99.90
10296;DHT22;5193;51.032;6.356;2023-05-29T15:29:16;20.10;99.90
10296;DHT22;5193;51.032;6.356;2023-05-29T15:31:42;20.10;99.90
10296;DHT22;5193;51.032;6.356;2023-05-29T15:34:08;20.10;99.90
10296;DHT22;5193;51.032;6.356;2023-05-29T15:36:34;20.10;99.90
10296;DHT22;5193;51.032;6.356;2023-05-29T15:39:02;20.00;99.90
10296;DHT22;5193;51.032;6.356;2023-05-29T15:41:28;19.90;99.90
10296;DHT22;5193;51.032;6.356;2023-05-29T15:43:57;19.90;99.90
10296;DHT22;5193;51.032;6.356;2023-05-29T15:46:27;19.80;99.90
10296;DHT22;5193;51.032;6.356;2023-05-29T15:48:53;19.70;99.90
10296;DHT22;5193;51.032;6.356;2023-05-29T15:51:18;19.70;99.90
10296;DHT22;5193;51.032;6.356;2023-05-29T15:53:44;19.60;99.90
10296;DHT22;5193;51.032;6.356;2023-05-29T15:56:10;19.60;99.90
10296;DHT22;5193;51.032;6.356;2023-05-29T15:58:35;19.60;99.90
10296;DHT22;5193;51.032;6.356;2023-05-29T16:01:01;19.60;99.90
10296;DHT22;5193;51.032;6.356;2023-05-29T16:03:28;19.60;99.90
10296;DHT22;5193;51.032;6.356;2023-05-29T16:05:54;19.80;99.90
10296;DHT22;5193;51.032;6.356;2023-05-29T16:08:20;19.90;99.90
10296;DHT22;5193;51.032;6.356;2023-05-29T16:10:45;20.10;99.90